VNKT

Details ICAO VNKT (KTM)
Name Kathmandu Tribhuvan Intl
Region Nepal
Timezone Asia/Kathmandu (UTC+5.8)
Plans Departing 379
Arriving 413
Stats Elevation 4,390 ft / 1,338 m (AMSL)
Location 27.696583° 85.359100°
Runways 1
Magnetic Variation 0.492° E
Sunrise 2017-12-18 01:04:42 UTC / 2017-12-18 06:49:42 Local
Sunset 2017-12-18 11:28:08 UTC / 2017-12-18 17:13:08 Local
Advertisement - Login to hide

Runways

ID Width Length Bearing (true) Bearing (mag) Surface Threshold Offset Overrun Length
02 148 ft / 45 m 10,017 ft / 3,053 m 21.50° 21.01° Asphalt 0 ft / 0 m 0 ft / 0 m
20 148 ft / 45 m 10,017 ft / 3,053 m 201.51° 201.02° Asphalt 400 ft / 122 m 0 ft / 0 m

Map

Weather


0- 5 10 15 20 25 30 35+ Temperature / ° C

Clouds and Precipitation
Forecast for 2017-12-18 12:00 UTC. Updated 2 hours ago

Ground ~20,000 ft ~40,000 ft Winds

METAR

VNKT 181320Z 23005KT 6000 FEW015 13/09 Q1023 NOSIG

TAF

TAF VNKT 181100Z 1812/1912 26003KT 6000 FEW015 BECMG 1814/1815 VRB02KT 4000 BR FEW015 BECMG 1900/1902 3000 BR FEW010 SCT250 PROB40 1801/1803 1000 BR FEW010 SCT250 BECMG 1804/1805 13003KT 4000 HZ FEW015 SCT250 BECMG 1807/1809 26004KT 7000 FEW015 SCT100

Frequencies

Recorded 127.00 MHz KATHMANDU ATIS
Tower 118.10 MHz KATHMANDU TWR
Approach 120.60 MHz KATHMANDU APP
Ground 121.90 MHz KATHMANDU GND
Tower 118.50 MHz KATHMANDU TWR
Approach 125.10 MHz KATHMANDU APP
Warning: Do not use this data for real-world aviation or navigation. No guarantee of current accuracy is given.